sensor_id;sensor_type;location;lat;lon;timestamp;P1;durP1;ratioP1;P2;durP2;ratioP2
83055;SDS011;72881;43.514;1.510;2023-09-19T22:03:53;6.80;;;2.47;;
83055;SDS011;72881;43.514;1.510;2023-09-19T22:06:19;7.72;;;2.78;;
83055;SDS011;72881;43.514;1.510;2023-09-19T22:11:14;6.72;;;2.45;;
83055;SDS011;72881;43.514;1.510;2023-09-19T22:13:45;6.50;;;2.70;;
83055;SDS011;72881;43.514;1.510;2023-09-19T22:16:11;7.40;;;2.72;;
83055;SDS011;72881;43.514;1.510;2023-09-19T22:18:39;7.68;;;2.72;;
83055;SDS011;72881;43.514;1.510;2023-09-19T22:21:05;7.07;;;2.58;;
83055;SDS011;72881;43.514;1.510;2023-09-19T22:23:50;6.00;;;2.05;;
83055;SDS011;72881;43.514;1.510;2023-09-19T22:26:17;5.38;;;2.30;;
83055;SDS011;72881;43.514;1.510;2023-09-19T22:28:44;7.00;;;2.42;;
83055;SDS011;72881;43.514;1.510;2023-09-19T22:31:15;5.75;;;2.75;;
83055;SDS011;72881;43.514;1.510;2023-09-19T22:33:48;6.90;;;2.50;;
83055;SDS011;72881;43.514;1.510;2023-09-19T22:36:18;7.00;;;2.60;;
83055;SDS011;72881;43.514;1.510;2023-09-19T22:38:56;7.78;;;2.65;;
83055;SDS011;72881;43.514;1.510;2023-09-19T22:41:37;7.03;;;2.70;;
83055;SDS011;72881;43.514;1.510;2023-09-19T22:44:04;6.35;;;2.42;;
83055;SDS011;72881;43.514;1.510;2023-09-19T22:46:30;5.68;;;2.40;;
83055;SDS011;72881;43.514;1.510;2023-09-19T22:48:56;7.10;;;2.33;;
83055;SDS011;72881;43.514;1.510;2023-09-19T22:51:22;6.80;;;2.42;;
83055;SDS011;72881;43.514;1.510;2023-09-19T22:54:06;8.85;;;2.30;;
83055;SDS011;72881;43.514;1.510;2023-09-19T22:56:36;7.00;;;2.10;;
83055;SDS011;72881;43.514;1.510;2023-09-19T22:59:01;7.65;;;2.30;;
83055;SDS011;72881;43.514;1.510;2023-09-19T23:01:29;6.43;;;2.17;;
83055;SDS011;72881;43.514;1.510;2023-09-19T23:04:00;7.78;;;2.83;;
83055;SDS011;72881;43.514;1.510;2023-09-19T23:06:39;5.03;;;2.13;;
83055;SDS011;72881;43.514;1.510;2023-09-19T23:11:33;6.83;;;1.97;;
83055;SDS011;72881;43.514;1.510;2023-09-19T23:13:59;7.97;;;1.92;;
83055;SDS011;72881;43.514;1.510;2023-09-19T23:16:26;4.35;;;1.98;;
83055;SDS011;72881;43.514;1.510;2023-09-19T23:19:01;6.10;;;2.05;;
83055;SDS011;72881;43.514;1.510;2023-09-19T23:21:45;5.47;;;2.05;;
83055;SDS011;72881;43.514;1.510;2023-09-19T23:24:12;5.35;;;1.98;;
83055;SDS011;72881;43.514;1.510;2023-09-19T23:26:42;4.90;;;2.30;;
83055;SDS011;72881;43.514;1.510;2023-09-19T23:29:11;4.50;;;1.70;;
83055;SDS011;72881;43.514;1.510;2023-09-19T23:31:37;5.40;;;1.70;;
83055;SDS011;72881;43.514;1.510;2023-09-19T23:34:05;5.70;;;1.83;;
83055;SDS011;72881;43.514;1.510;2023-09-19T23:36:32;4.60;;;1.88;;
83055;SDS011;72881;43.514;1.510;2023-09-19T23:38:58;5.30;;;1.90;;
83055;SDS011;72881;43.514;1.510;2023-09-19T23:41:23;4.97;;;2.42;;
83055;SDS011;72881;43.514;1.510;2023-09-19T23:43:50;4.25;;;1.75;;
83055;SDS011;72881;43.514;1.510;2023-09-19T23:46:15;5.60;;;2.10;;
83055;SDS011;72881;43.514;1.510;2023-09-19T23:48:41;5.63;;;2.05;;
83055;SDS011;72881;43.514;1.510;2023-09-19T23:51:06;4.55;;;1.85;;
83055;SDS011;72881;43.514;1.510;2023-09-19T23:53:34;4.75;;;1.60;;
83055;SDS011;72881;43.514;1.510;2023-09-19T23:56:00;5.32;;;2.10;;
83055;SDS011;72881;43.514;1.510;2023-09-19T23:58:25;6.07;;;1.90;;
